createdAt,value
2023-04-15T00:07:35.524Z,8.80
2023-04-15T00:17:39.863Z,8.51
2023-04-15T00:27:44.255Z,8.30
2023-04-15T00:37:47.215Z,8.21
2023-04-15T00:47:52.390Z,8.12
2023-04-15T00:57:56.206Z,7.97
2023-04-15T01:08:00.659Z,7.81
2023-04-15T01:18:04.451Z,7.64
2023-04-15T01:28:09.564Z,7.48
2023-04-15T01:38:13.636Z,7.35
2023-04-15T01:48:18.026Z,7.25
2023-04-15T01:58:22.036Z,7.24
2023-04-15T02:08:27.088Z,7.11
2023-04-15T02:18:29.854Z,7.02
2023-04-15T02:28:34.286Z,6.87
2023-04-15T02:38:38.263Z,6.78
2023-04-15T02:48:42.870Z,6.63
2023-04-15T02:58:46.664Z,6.60
2023-04-15T03:08:51.402Z,6.45
2023-04-15T03:18:55.763Z,6.38
2023-04-15T03:29:01.732Z,6.26
2023-04-15T03:39:05.863Z,6.16
2023-04-15T03:49:10.212Z,5.95
2023-04-15T03:59:13.288Z,5.79
2023-04-15T04:09:17.863Z,5.63
2023-04-15T04:19:21.032Z,5.56
2023-04-15T04:29:25.595Z,5.58
2023-04-15T04:39:28.712Z,5.57
2023-04-15T04:49:33.051Z,5.60
2023-04-15T04:59:36.616Z,5.66
2023-04-15T05:09:41.229Z,5.78
2023-04-15T05:19:44.212Z,5.94
2023-04-15T05:29:48.580Z,6.07
2023-04-15T05:39:52.108Z,6.08
2023-04-15T05:49:57.002Z,6.18
2023-04-15T06:00:00.037Z,6.21
2023-04-15T06:10:04.905Z,6.37
2023-04-15T06:20:08.976Z,6.60
2023-04-15T06:30:14.190Z,6.98
2023-04-15T06:40:17.695Z,7.47
2023-04-15T06:50:22.158Z,7.86
2023-04-15T07:00:25.517Z,8.15
2023-04-15T07:10:38.785Z,8.46
2023-04-15T07:20:41.773Z,8.92
2023-04-15T07:30:53.181Z,9.33
2023-04-15T07:40:59.069Z,9.71
2023-04-15T07:51:10.945Z,10.14
2023-04-15T08:01:14.927Z,10.45
2023-04-15T08:11:26.256Z,10.56
2023-04-15T08:21:32.361Z,10.94
2023-04-15T08:31:43.585Z,11.30
2023-04-15T08:41:57.760Z,11.52
2023-04-15T08:52:02.822Z,11.95
2023-04-15T09:02:06.790Z,12.10
2023-04-15T09:12:17.017Z,12.41
2023-04-15T09:22:23.381Z,12.61
2023-04-15T09:32:31.416Z,12.53
2023-04-15T09:42:38.144Z,12.71
2023-04-15T09:52:48.900Z,13.20
2023-04-15T10:02:55.589Z,13.31
2023-04-15T10:13:10.515Z,13.23
2023-04-15T10:23:13.959Z,13.27
2023-04-15T10:33:23.367Z,13.62
2023-04-15T10:43:28.194Z,13.78
2023-04-15T10:53:40.062Z,13.76
2023-04-15T11:03:44.763Z,14.10
2023-04-15T11:13:54.317Z,14.05
2023-04-15T11:24:02.207Z,14.51
2023-04-15T11:34:11.441Z,14.61
2023-04-15T11:44:19.337Z,14.91
2023-04-15T11:54:27.494Z,14.99
2023-04-15T12:04:33.945Z,14.58
2023-04-15T12:14:43.262Z,14.66
2023-04-15T12:24:57.434Z,15.08
2023-04-15T12:35:01.828Z,15.40
2023-04-15T12:45:07.882Z,14.93
2023-04-15T12:55:15.765Z,15.18
2023-04-15T13:05:22.652Z,15.15
2023-04-15T13:15:34.714Z,15.46
2023-04-15T13:25:41.203Z,15.24
2023-04-15T13:35:49.008Z,15.53
2023-04-15T13:45:56.660Z,14.95
2023-04-15T13:56:05.255Z,14.84
2023-04-15T14:06:14.620Z,15.08
2023-04-15T14:16:23.303Z,15.57
2023-04-15T14:26:29.921Z,15.27
2023-04-15T14:36:41.775Z,14.97
2023-04-15T14:46:48.109Z,14.98
2023-04-15T14:56:55.905Z,14.90
2023-04-15T15:07:02.289Z,15.19
2023-04-15T15:17:13.122Z,14.17
2023-04-15T15:27:20.427Z,14.06
2023-04-15T15:37:31.688Z,14.23
2023-04-15T15:47:35.350Z,13.54
2023-04-15T15:57:46.541Z,13.60
2023-04-15T16:07:52.576Z,13.08
2023-04-15T16:18:03.283Z,12.70
2023-04-15T16:28:22.668Z,12.26
2023-04-15T16:38:29.847Z,12.24
2023-04-15T16:48:32.921Z,11.87
2023-04-15T16:58:37.303Z,11.55
2023-04-15T17:08:42.236Z,11.25
2023-04-15T17:18:53.214Z,10.99
2023-04-15T17:28:58.446Z,10.84
2023-04-15T17:39:11.962Z,10.71
2023-04-15T17:49:15.423Z,10.60
2023-04-15T17:59:26.346Z,10.46
2023-04-15T18:09:32.315Z,10.33
2023-04-15T18:19:55.187Z,10.22
2023-04-15T18:29:58.389Z,10.28
2023-04-15T18:40:02.895Z,10.29
2023-04-15T18:50:06.631Z,10.05
2023-04-15T19:00:12.715Z,10.11
2023-04-15T19:10:15.788Z,10.00
2023-04-15T19:20:20.258Z,9.91
2023-04-15T19:30:23.365Z,9.57
2023-04-15T19:40:27.767Z,9.49
2023-04-15T19:50:30.803Z,9.41
2023-04-15T20:00:35.351Z,9.32
2023-04-15T20:10:38.854Z,9.37
2023-04-15T20:20:43.294Z,9.42
2023-04-15T20:30:47.196Z,9.35
2023-04-15T20:40:51.571Z,9.32
2023-04-15T20:50:54.566Z,9.22
2023-04-15T21:00:59.701Z,9.13
2023-04-15T21:11:02.783Z,9.11
2023-04-15T21:21:07.334Z,9.04
2023-04-15T21:31:10.314Z,9.00
2023-04-15T21:41:14.658Z,8.82
2023-04-15T21:51:17.679Z,8.65
2023-04-15T22:01:22.086Z,8.50
2023-04-15T22:11:28.240Z,8.37
2023-04-15T22:21:33.002Z,8.38
2023-04-15T22:31:36.085Z,8.36
2023-04-15T22:41:40.492Z,8.32
2023-04-15T22:51:44.937Z,8.36
2023-04-15T23:01:49.398Z,8.28
2023-04-15T23:11:52.515Z,8.25
2023-04-15T23:21:56.946Z,8.19
2023-04-15T23:32:00.302Z,8.13
2023-04-15T23:42:04.845Z,8.10
2023-04-15T23:52:08.034Z,7.99
